Time;durP1;ratioP1;P1;durP2;ratioP2;P2;SDS_P1;SDS_P2;PMS_P1;PMS_P2;Temp;Humidity;BMP_temperature;BMP_pressure;BME280_temperature;BME280_humidity;BME280_pressure;Samples;Min_cycle;Max_cycle;Signal;HPM_P1;HPM_P2
2023/04/21 00:01:39;;;;;;;;;;;6.80;99.90;;;;;;4997229;28;19926;-77
2023/04/21 00:04:08;;;;;;;;;;;6.80;99.90;;;;;;5004416;28;19933;-78
2023/04/21 00:06:35;;;;;;;;;;;6.80;99.90;;;;;;5003626;28;19940;-77
2023/04/21 00:09:04;;;;;;;;;;;6.90;99.90;;;;;;5000353;28;20000;-78
2023/04/21 00:11:31;;;;;;;;;;;6.80;99.90;;;;;;5003159;28;19925;-77
2023/04/21 00:13:59;;;;;;;;;;;6.80;99.90;;;;;;5002026;28;19957;-77
2023/04/21 00:16:25;;;;;;;;;;;6.80;99.90;;;;;;5001846;28;19925;-77
2023/04/21 00:18:52;;;;;;;;;;;6.90;99.90;;;;;;5004764;28;20376;-77
2023/04/21 00:21:19;;;;;;;;;;;6.80;99.90;;;;;;5001543;28;19940;-79
2023/04/21 00:23:48;;;;;;;;;;;6.80;99.90;;;;;;5004908;28;19925;-80
2023/04/21 00:26:15;;;;;;;;;;;6.80;99.90;;;;;;5005746;28;19926;-80
2023/04/21 00:28:44;;;;;;;;;;;6.80;99.90;;;;;;4986629;28;19929;-80
2023/04/21 00:31:12;;;;;;;;;;;6.80;99.90;;;;;;5002829;28;19929;-80
2023/04/21 00:33:39;;;;;;;;;;;6.90;99.90;;;;;;5003309;28;20024;-80
2023/04/21 00:36:06;;;;;;;;;;;6.80;99.90;;;;;;5003845;28;19929;-77
2023/04/21 00:38:33;;;;;;;;;;;6.80;99.90;;;;;;5000809;28;19929;-77
2023/04/21 00:41:00;;;;;;;;;;;6.80;99.90;;;;;;4984102;28;19926;-76
2023/04/21 00:43:26;;;;;;;;;;;6.80;99.90;;;;;;5008528;28;19975;-77
2023/04/21 00:45:54;;;;;;;;;;;6.80;99.90;;;;;;5001788;28;19933;-77
2023/04/21 00:48:22;;;;;;;;;;;6.90;99.90;;;;;;4997914;28;19957;-76
2023/04/21 00:50:49;;;;;;;;;;;6.90;99.90;;;;;;4978626;28;19926;-77
2023/04/21 00:53:16;;;;;;;;;;;6.80;99.90;;;;;;4995071;28;19987;-77
2023/04/21 00:55:45;;;;;;;;;;;6.90;99.90;;;;;;4994603;28;19930;-77
2023/04/21 00:58:12;;;;;;;;;;;6.90;99.90;;;;;;5003513;28;20227;-77
2023/04/21 01:00:39;;;;;;;;;;;6.90;99.90;;;;;;5004178;28;20020;-79
2023/04/21 01:03:06;;;;;;;;;;;6.90;99.90;;;;;;5004458;28;20016;-80
2023/04/21 01:05:34;;;;;;;;;;;6.90;99.90;;;;;;5010187;28;20376;-80
2023/04/21 01:08:02;;;;;;;;;;;6.90;99.90;;;;;;5001362;28;19964;-80
2023/04/21 01:10:28;;;;;;;;;;;6.90;99.90;;;;;;4998668;28;19929;-77
2023/04/21 01:12:55;;;;;;;;;;;6.90;99.90;;;;;;5002928;28;20020;-78
2023/04/21 01:15:22;;;;;;;;;;;6.90;99.90;;;;;;5000125;28;19929;-77
2023/04/21 01:17:49;;;;;;;;;;;6.90;99.90;;;;;;4988770;28;19925;-78
2023/04/21 01:20:15;;;;;;;;;;;6.80;99.90;;;;;;4982747;28;19981;-77
2023/04/21 01:22:44;;;;;;;;;;;6.80;99.90;;;;;;4986220;28;20094;-77
2023/04/21 01:25:11;;;;;;;;;;;6.90;99.90;;;;;;4999910;28;20575;-77
2023/04/21 01:27:38;;;;;;;;;;;6.90;99.90;;;;;;5004705;28;19963;-77
2023/04/21 01:30:06;;;;;;;;;;;6.90;99.90;;;;;;4997799;28;19945;-78
2023/04/21 01:32:32;;;;;;;;;;;6.80;99.90;;;;;;5002690;28;20339;-77
2023/04/21 01:35:00;;;;;;;;;;;6.80;99.90;;;;;;5008985;28;19980;-76
2023/04/21 01:37:28;;;;;;;;;;;6.90;99.90;;;;;;4991269;28;20279;-78
2023/04/21 01:39:58;;;;;;;;;;;6.90;99.90;;;;;;4992710;28;20457;-78
2023/04/21 01:42:25;;;;;;;;;;;6.90;99.90;;;;;;5008171;28;19937;-76
2023/04/21 01:44:53;;;;;;;;;;;6.90;99.90;;;;;;5009475;28;19960;-78
2023/04/21 01:47:20;;;;;;;;;;;6.80;99.90;;;;;;4986651;28;19996;-80
2023/04/21 01:49:47;;;;;;;;;;;6.80;99.90;;;;;;5012819;28;19972;-80
2023/04/21 01:52:14;;;;;;;;;;;6.90;99.90;;;;;;5008823;28;20380;-80
2023/04/21 01:54:41;;;;;;;;;;;6.90;99.90;;;;;;5005292;28;19941;-80
2023/04/21 01:57:09;;;;;;;;;;;6.80;99.90;;;;;;5005728;28;19933;-79
2023/04/21 01:59:37;;;;;;;;;;;6.90;99.90;;;;;;4986935;28;20356;-80
2023/04/21 02:02:04;;;;;;;;;;;6.90;99.90;;;;;;5001082;28;20314;-80
2023/04/21 02:04:33;;;;;;;;;;;6.90;99.90;;;;;;5010127;28;20012;-80
2023/04/21 02:07:00;;;;;;;;;;;6.90;99.90;;;;;;4993911;28;20331;-80
2023/04/21 02:09:27;;;;;;;;;;;6.80;99.90;;;;;;5010836;28;19932;-80
2023/04/21 02:11:55;;;;;;;;;;;6.90;99.90;;;;;;4999072;28;19929;-82
2023/04/21 02:14:24;;;;;;;;;;;6.90;99.90;;;;;;5026524;28;19948;-80
2023/04/21 02:16:51;;;;;;;;;;;6.80;99.90;;;;;;5015121;28;19925;-80
2023/04/21 02:19:17;;;;;;;;;;;6.90;99.90;;;;;;4995422;28;19930;-77
2023/04/21 02:21:44;;;;;;;;;;;6.80;99.90;;;;;;4986081;28;20391;-77
2023/04/21 02:24:11;;;;;;;;;;;6.90;99.90;;;;;;5006748;28;19969;-78
2023/04/21 02:26:38;;;;;;;;;;;6.80;99.90;;;;;;4991350;28;19933;-78
2023/04/21 02:29:04;;;;;;;;;;;6.80;99.90;;;;;;4998741;28;19929;-80
2023/04/21 02:31:33;;;;;;;;;;;6.80;99.90;;;;;;5003014;28;20008;-80
2023/04/21 02:34:00;;;;;;;;;;;6.80;99.90;;;;;;5009930;28;20013;-80
2023/04/21 02:36:27;;;;;;;;;;;6.80;99.90;;;;;;5012728;28;19925;-80
2023/04/21 02:38:57;;;;;;;;;;;6.80;99.90;;;;;;5004974;28;19926;-80
2023/04/21 02:41:24;;;;;;;;;;;6.80;99.90;;;;;;4995397;28;19926;-80
2023/04/21 02:43:51;;;;;;;;;;;6.80;99.90;;;;;;5012686;28;19925;-79
2023/04/21 02:46:18;;;;;;;;;;;6.80;99.90;;;;;;5011300;28;19925;-79
2023/04/21 02:48:46;;;;;;;;;;;6.80;99.90;;;;;;5005398;28;19939;-79
2023/04/21 02:51:13;;;;;;;;;;;6.80;99.90;;;;;;5004043;28;19933;-79
2023/04/21 02:53:40;;;;;;;;;;;6.80;99.90;;;;;;4989361;28;19926;-78
2023/04/21 02:56:07;;;;;;;;;;;6.80;99.90;;;;;;4991435;28;19929;-80
2023/04/21 02:58:34;;;;;;;;;;;6.80;99.90;;;;;;4993699;28;19972;-80
2023/04/21 03:01:01;;;;;;;;;;;6.80;99.90;;;;;;5010894;28;20684;-79
2023/04/21 03:03:28;;;;;;;;;;;6.80;99.90;;;;;;5003356;28;19957;-77
2023/04/21 03:06:00;;;;;;;;;;;6.80;99.90;;;;;;5005371;28;20034;-76
2023/04/21 03:08:26;;;;;;;;;;;6.80;99.90;;;;;;5000467;28;20424;-77
2023/04/21 03:10:53;;;;;;;;;;;6.80;99.90;;;;;;5007653;28;20358;-78
2023/04/21 03:13:23;;;;;;;;;;;6.80;99.90;;;;;;5000709;28;19961;-79
2023/04/21 03:15:51;;;;;;;;;;;6.80;99.90;;;;;;4990458;28;19925;-77
2023/04/21 03:18:18;;;;;;;;;;;6.80;99.90;;;;;;4986948;28;19941;-78
2023/04/21 03:20:45;;;;;;;;;;;6.80;99.90;;;;;;4991301;28;19933;-77
2023/04/21 03:23:13;;;;;;;;;;;6.80;99.90;;;;;;4998344;28;20016;-78
2023/04/21 03:25:40;;;;;;;;;;;6.80;99.90;;;;;;5006491;28;19933;-80
2023/04/21 03:28:07;;;;;;;;;;;6.80;99.90;;;;;;4991584;28;19983;-80
2023/04/21 03:30:34;;;;;;;;;;;6.80;99.90;;;;;;4988290;28;19930;-80
2023/04/21 03:33:01;;;;;;;;;;;6.80;99.90;;;;;;5007551;28;19925;-80
2023/04/21 03:35:27;;;;;;;;;;;6.80;99.90;;;;;;5001061;28;20011;-80
2023/04/21 03:37:54;;;;;;;;;;;6.80;99.90;;;;;;5003439;28;19933;-80
2023/04/21 03:40:23;;;;;;;;;;;6.80;99.90;;;;;;4987581;28;20463;-80
2023/04/21 03:42:50;;;;;;;;;;;6.80;99.90;;;;;;5011504;28;19925;-80
2023/04/21 03:45:21;;;;;;;;;;;6.80;99.90;;;;;;5007389;28;20024;-80
2023/04/21 03:47:48;;;;;;;;;;;6.80;99.90;;;;;;5005457;28;20323;-80
2023/04/21 03:50:23;;;;;;;;;;;6.80;99.90;;;;;;5004344;28;19926;-80
2023/04/21 03:52:50;;;;;;;;;;;6.80;99.90;;;;;;5003116;28;20370;-80
2023/04/21 03:55:17;;;;;;;;;;;6.80;99.90;;;;;;5005996;28;19940;-80
2023/04/21 03:57:45;;;;;;;;;;;6.70;99.90;;;;;;5005295;28;19925;-80
2023/04/21 04:00:13;;;;;;;;;;;6.70;99.90;;;;;;5003267;28;19949;-80
2023/04/21 04:02:40;;;;;;;;;;;6.70;99.90;;;;;;5008210;28;19940;-80
2023/04/21 04:05:07;;;;;;;;;;;6.70;99.90;;;;;;5005892;28;20467;-79
2023/04/21 04:07:34;;;;;;;;;;;6.70;99.90;;;;;;5001604;28;19925;-86
2023/04/21 04:10:01;;;;;;;;;;;6.70;99.90;;;;;;5007145;28;20406;-81
2023/04/21 04:12:28;;;;;;;;;;;6.80;99.90;;;;;;5005962;28;19926;-82
2023/04/21 04:14:56;;;;;;;;;;;6.70;99.90;;;;;;5006390;28;19933;-79
2023/04/21 04:17:23;;;;;;;;;;;6.80;99.90;;;;;;5008893;28;20030;-78
2023/04/21 04:19:50;;;;;;;;;;;6.70;99.90;;;;;;5002730;28;19957;-78
2023/04/21 04:22:17;;;;;;;;;;;6.80;99.90;;;;;;5004959;28;19929;-78
2023/04/21 04:24:44;;;;;;;;;;;6.70;99.90;;;;;;4999439;28;19926;-80
2023/04/21 04:27:13;;;;;;;;;;;6.70;99.90;;;;;;5000723;28;19933;-77
2023/04/21 04:29:40;;;;;;;;;;;6.70;99.90;;;;;;4982232;28;19984;-78
2023/04/21 04:32:09;;;;;;;;;;;6.70;99.90;;;;;;4999129;28;19971;-77
2023/04/21 04:34:37;;;;;;;;;;;6.70;99.90;;;;;;4988374;28;19933;-77
2023/04/21 04:37:05;;;;;;;;;;;6.70;99.90;;;;;;5005684;28;20411;-80
2023/04/21 04:39:32;;;;;;;;;;;6.70;99.90;;;;;;5006063;28;19941;-85
2023/04/21 04:42:00;;;;;;;;;;;6.70;99.90;;;;;;4988239;28;19929;-79
2023/04/21 04:44:27;;;;;;;;;;;6.70;99.90;;;;;;5002230;28;19936;-80
2023/04/21 04:46:53;;;;;;;;;;;6.70;99.90;;;;;;4997243;28;19980;-80
2023/04/21 04:49:24;;;;;;;;;;;6.60;99.90;;;;;;5003434;28;19972;-80
2023/04/21 04:51:51;;;;;;;;;;;6.70;99.90;;;;;;5003636;28;19980;-78
2023/04/21 04:54:18;;;;;;;;;;;6.70;99.90;;;;;;5005101;28;20012;-80
2023/04/21 04:56:48;;;;;;;;;;;6.70;99.90;;;;;;5003954;28;20483;-79
2023/04/21 04:59:14;;;;;;;;;;;6.70;99.90;;;;;;5001502;28;19977;-81
2023/04/21 05:01:41;;;;;;;;;;;6.70;99.90;;;;;;5000391;28;19965;-81
2023/04/21 05:04:08;;;;;;;;;;;6.70;99.90;;;;;;5003279;28;19925;-82
2023/04/21 05:06:36;;;;;;;;;;;6.70;99.90;;;;;;5009494;28;20004;-83
2023/04/21 05:09:04;;;;;;;;;;;6.70;99.90;;;;;;5002648;28;19932;-81
2023/04/21 05:11:31;;;;;;;;;;;6.70;99.90;;;;;;5010460;28;19975;-81
2023/04/21 05:13:58;;;;;;;;;;;6.70;99.90;;;;;;5007238;28;20392;-81
2023/04/21 05:16:25;;;;;;;;;;;6.70;99.90;;;;;;5000359;28;19930;-84
2023/04/21 05:18:53;;;;;;;;;;;6.70;99.90;;;;;;4999938;28;19972;-81
2023/04/21 05:21:26;;;;;;;;;;;6.70;99.90;;;;;;4998090;28;19925;-82
2023/04/21 05:23:54;;;;;;;;;;;6.70;99.90;;;;;;4993224;28;19933;-82
2023/04/21 05:26:21;;;;;;;;;;;6.70;99.90;;;;;;5001935;28;20235;-82
2023/04/21 05:28:48;;;;;;;;;;;6.70;99.90;;;;;;4996611;28;19953;-84
2023/04/21 05:31:15;;;;;;;;;;;6.70;99.90;;;;;;4994077;28;19933;-82
2023/04/21 05:33:42;;;;;;;;;;;6.80;99.90;;;;;;5003448;28;19964;-80
2023/04/21 05:36:09;;;;;;;;;;;6.80;99.90;;;;;;5000945;28;19933;-79
2023/04/21 05:38:36;;;;;;;;;;;6.80;99.90;;;;;;5016458;28;20486;-79
2023/04/21 05:41:04;;;;;;;;;;;6.80;99.90;;;;;;5005155;28;19965;-79
2023/04/21 05:43:32;;;;;;;;;;;6.80;99.90;;;;;;5003588;28;19933;-82
2023/04/21 05:45:59;;;;;;;;;;;6.80;99.90;;;;;;5005937;28;20391;-79
2023/04/21 05:48:26;;;;;;;;;;;6.80;99.90;;;;;;5003531;28;20350;-80
2023/04/21 05:50:52;;;;;;;;;;;6.80;99.90;;;;;;5003234;28;19925;-83
2023/04/21 05:53:19;;;;;;;;;;;6.80;99.90;;;;;;5007381;28;20062;-81
2023/04/21 05:55:46;;;;;;;;;;;6.80;99.90;;;;;;5005157;28;19934;-80
2023/04/21 05:58:14;;;;;;;;;;;6.80;99.90;;;;;;4990753;28;19926;-79
2023/04/21 06:00:41;;;;;;;;;;;6.80;99.90;;;;;;5004194;28;19964;-79
2023/04/21 06:03:08;;;;;;;;;;;6.70;99.90;;;;;;5002351;28;19929;-82
2023/04/21 06:05:35;;;;;;;;;;;6.70;99.90;;;;;;5002053;28;19926;-79
2023/04/21 06:08:02;;;;;;;;;;;6.70;99.90;;;;;;5000014;28;19969;-79
2023/04/21 06:10:29;;;;;;;;;;;6.70;99.90;;;;;;4998381;28;20015;-81
2023/04/21 06:12:56;;;;;;;;;;;6.70;99.90;;;;;;5004430;28;19934;-81
2023/04/21 06:15:24;;;;;;;;;;;6.70;99.90;;;;;;5001777;28;19940;-79
2023/04/21 06:17:52;;;;;;;;;;;6.70;99.90;;;;;;4997960;28;20300;-80
2023/04/21 06:20:19;;;;;;;;;;;6.70;99.90;;;;;;5002889;28;20455;-82
2023/04/21 06:22:46;;;;;;;;;;;6.70;99.90;;;;;;5003684;28;20111;-80
2023/04/21 06:25:13;;;;;;;;;;;6.70;99.90;;;;;;5004048;28;20022;-79
2023/04/21 06:27:40;;;;;;;;;;;6.70;99.90;;;;;;5004016;28;19933;-79
2023/04/21 06:30:07;;;;;;;;;;;6.70;99.90;;;;;;5003670;28;19949;-83
2023/04/21 06:32:35;;;;;;;;;;;6.70;99.90;;;;;;5000314;28;20297;-79
2023/04/21 06:35:02;;;;;;;;;;;6.70;99.90;;;;;;5001514;28;19979;-79
2023/04/21 06:37:29;;;;;;;;;;;6.70;99.90;;;;;;5006650;28;20356;-79
2023/04/21 06:39:56;;;;;;;;;;;6.70;99.90;;;;;;5005209;28;19933;-79
2023/04/21 06:42:23;;;;;;;;;;;6.70;99.90;;;;;;4995370;28;19929;-81
2023/04/21 06:44:50;;;;;;;;;;;6.70;99.90;;;;;;5002865;28;19925;-79
2023/04/21 06:47:18;;;;;;;;;;;6.70;99.90;;;;;;4983757;28;19926;-81
2023/04/21 06:49:46;;;;;;;;;;;6.70;99.90;;;;;;4988995;28;19929;-79
2023/04/21 06:52:13;;;;;;;;;;;6.70;99.90;;;;;;5007228;28;19925;-83
2023/04/21 06:54:40;;;;;;;;;;;6.70;99.90;;;;;;4998485;28;20142;-80
2023/04/21 06:57:07;;;;;;;;;;;6.70;99.90;;;;;;5000981;28;20307;-79
2023/04/21 06:59:34;;;;;;;;;;;6.70;99.90;;;;;;4993560;28;20315;-80
2023/04/21 07:02:01;;;;;;;;;;;6.70;99.90;;;;;;4985198;28;19941;-79
2023/04/21 07:04:30;;;;;;;;;;;6.70;99.90;;;;;;5002849;28;19983;-79
2023/04/21 07:06:59;;;;;;;;;;;6.70;99.90;;;;;;5001271;28;20594;-79
2023/04/21 07:09:27;;;;;;;;;;;6.70;99.90;;;;;;5008499;28;19972;-81
2023/04/21 07:11:54;;;;;;;;;;;6.70;99.90;;;;;;5003910;28;19931;-82
2023/04/21 07:14:21;;;;;;;;;;;6.70;99.90;;;;;;5001820;28;19925;-79
2023/04/21 07:16:48;;;;;;;;;;;6.70;99.90;;;;;;5003521;28;20055;-82
2023/04/21 07:19:15;;;;;;;;;;;6.70;99.90;;;;;;4999286;28;20380;-80
2023/04/21 07:21:42;;;;;;;;;;;6.70;99.90;;;;;;5002898;28;19926;-79
2023/04/21 07:24:10;;;;;;;;;;;6.70;99.90;;;;;;5001900;28;19929;-79
2023/04/21 07:26:37;;;;;;;;;;;6.70;99.90;;;;;;5001111;28;19936;-79
2023/04/21 07:29:04;;;;;;;;;;;6.70;99.90;;;;;;4989829;28;19926;-81
2023/04/21 07:31:31;;;;;;;;;;;6.70;99.90;;;;;;4999799;28;19929;-79
2023/04/21 07:33:57;;;;;;;;;;;6.70;99.90;;;;;;4996574;28;19925;-79
2023/04/21 07:36:27;;;;;;;;;;;6.70;99.90;;;;;;5007528;28;19926;-79
2023/04/21 07:38:53;;;;;;;;;;;6.70;99.90;;;;;;5007665;28;19980;-79
2023/04/21 07:41:25;;;;;;;;;;;6.70;99.90;;;;;;5001629;28;20315;-81
2023/04/21 07:43:52;;;;;;;;;;;6.70;99.90;;;;;;4993913;28;20003;-79
2023/04/21 07:46:19;;;;;;;;;;;6.70;99.90;;;;;;5008633;28;20344;-81
2023/04/21 07:48:46;;;;;;;;;;;6.80;99.90;;;;;;5003231;28;19980;-79
2023/04/21 07:51:16;;;;;;;;;;;6.80;99.90;;;;;;5003290;28;20024;-80
2023/04/21 07:53:43;;;;;;;;;;;6.80;99.90;;;;;;4993149;28;19976;-81
2023/04/21 07:56:11;;;;;;;;;;;6.80;99.90;;;;;;5005635;28;20032;-79
2023/04/21 07:58:40;;;;;;;;;;;6.80;99.90;;;;;;4996765;28;19968;-79
2023/04/21 08:01:06;;;;;;;;;;;6.80;99.90;;;;;;5001096;28;20056;-79
2023/04/21 08:03:33;;;;;;;;;;;6.80;99.90;;;;;;5003546;28;19968;-79
2023/04/21 08:06:00;;;;;;;;;;;6.80;99.90;;;;;;4988249;28;20438;-79
2023/04/21 08:08:27;;;;;;;;;;;6.80;99.90;;;;;;5001251;28;19973;-78
2023/04/21 08:10:54;;;;;;;;;;;6.80;99.90;;;;;;4995608;28;19979;-78
2023/04/21 08:13:23;;;;;;;;;;;6.80;99.90;;;;;;5004085;28;20416;-81
2023/04/21 08:15:52;;;;;;;;;;;6.80;99.90;;;;;;5003894;28;19925;-81
2023/04/21 08:18:19;;;;;;;;;;;6.80;99.90;;;;;;5010342;28;19927;-80
2023/04/21 08:20:46;;;;;;;;;;;6.80;99.90;;;;;;5002468;28;19965;-83
2023/04/21 08:23:13;;;;;;;;;;;6.80;99.90;;;;;;4999789;28;19926;-78
2023/04/21 08:25:40;;;;;;;;;;;6.90;99.90;;;;;;4995716;28;19936;-81
2023/04/21 08:28:07;;;;;;;;;;;6.90;99.90;;;;;;5003229;28;19925;-82
2023/04/21 08:30:34;;;;;;;;;;;6.90;99.90;;;;;;4999638;28;19926;-81
2023/04/21 08:33:03;;;;;;;;;;;6.90;99.90;;;;;;5003803;28;19972;-81
2023/04/21 08:35:29;;;;;;;;;;;6.90;99.90;;;;;;4985249;28;19929;-79
2023/04/21 08:37:56;;;;;;;;;;;6.90;99.90;;;;;;5006158;28;19925;-79
2023/04/21 08:40:27;;;;;;;;;;;6.90;99.90;;;;;;4983697;28;20023;-79
2023/04/21 08:42:54;;;;;;;;;;;7.00;99.90;;;;;;5000697;28;19929;-79
2023/04/21 08:45:21;;;;;;;;;;;7.00;99.90;;;;;;5009215;28;19925;-82
2023/04/21 08:47:48;;;;;;;;;;;7.00;99.90;;;;;;5000814;28;19925;-79
2023/04/21 08:50:16;;;;;;;;;;;7.00;99.90;;;;;;5006357;28;19961;-80
2023/04/21 08:52:43;;;;;;;;;;;7.00;99.90;;;;;;5003992;28;19979;-79
2023/04/21 08:55:12;;;;;;;;;;;7.00;99.90;;;;;;4997235;28;20391;-79
2023/04/21 08:57:39;;;;;;;;;;;7.10;99.90;;;;;;5001806;28;19933;-81
2023/04/21 09:00:07;;;;;;;;;;;7.10;99.90;;;;;;5000433;28;19936;-79
2023/04/21 09:02:34;;;;;;;;;;;7.10;99.90;;;;;;5004334;28;19936;-79
2023/04/21 09:05:00;;;;;;;;;;;7.10;99.90;;;;;;5001242;28;20400;-81
2023/04/21 09:07:32;;;;;;;;;;;7.10;99.90;;;;;;5002052;28;19933;-79
2023/04/21 09:10:00;;;;;;;;;;;7.20;99.90;;;;;;4986034;28;19937;-82
2023/04/21 09:12:27;;;;;;;;;;;7.20;99.90;;;;;;4999761;28;20277;-82
2023/04/21 09:14:54;;;;;;;;;;;7.20;99.90;;;;;;4984602;28;20471;-79
2023/04/21 09:17:22;;;;;;;;;;;7.20;99.90;;;;;;4999092;28;19926;-82
2023/04/21 09:19:49;;;;;;;;;;;7.20;99.90;;;;;;4999445;28;19940;-79
2023/04/21 09:22:16;;;;;;;;;;;7.30;99.90;;;;;;5003055;28;19926;-82
2023/04/21 09:24:47;;;;;;;;;;;7.30;99.90;;;;;;4998397;28;20259;-79
2023/04/21 09:27:15;;;;;;;;;;;7.30;99.90;;;;;;4979560;28;20428;-79
2023/04/21 09:29:46;;;;;;;;;;;7.40;99.90;;;;;;4981912;28;20446;-81
2023/04/21 09:32:16;;;;;;;;;;;7.40;99.90;;;;;;4979862;28;19925;-83
2023/04/21 09:34:43;;;;;;;;;;;7.40;99.90;;;;;;5001263;28;19925;-79
2023/04/21 09:37:10;;;;;;;;;;;7.40;99.90;;;;;;5001514;28;19964;-81
2023/04/21 09:39:38;;;;;;;;;;;7.40;99.90;;;;;;4999273;28;19931;-82
2023/04/21 09:42:06;;;;;;;;;;;7.40;99.90;;;;;;5008560;28;19925;-79
2023/04/21 09:44:33;;;;;;;;;;;7.50;99.90;;;;;;5001605;28;19953;-84
2023/04/21 09:47:01;;;;;;;;;;;7.50;99.90;;;;;;4995665;28;20004;-79
2023/04/21 09:49:29;;;;;;;;;;;7.50;99.90;;;;;;5007073;28;20314;-81
2023/04/21 09:51:57;;;;;;;;;;;7.50;99.90;;;;;;5012791;28;19956;-82
2023/04/21 09:54:28;;;;;;;;;;;7.60;99.90;;;;;;5006976;28;20347;-80
2023/04/21 09:56:58;;;;;;;;;;;7.60;99.90;;;;;;5003385;28;19926;-79
2023/04/21 09:59:29;;;;;;;;;;;7.60;99.90;;;;;;5010945;28;19945;-80
2023/04/21 10:01:57;;;;;;;;;;;7.70;99.90;;;;;;5004419;28;19933;-79
2023/04/21 10:04:24;;;;;;;;;;;7.70;99.90;;;;;;5002187;28;19929;-81
2023/04/21 10:06:51;;;;;;;;;;;7.70;99.90;;;;;;5011883;28;19999;-79
2023/04/21 10:09:20;;;;;;;;;;;7.80;99.90;;;;;;5008946;28;19930;-81
2023/04/21 10:11:46;;;;;;;;;;;7.80;99.90;;;;;;5002036;28;19961;-80
2023/04/21 10:14:13;;;;;;;;;;;7.80;99.90;;;;;;5003541;28;19968;-79
2023/04/21 10:16:42;;;;;;;;;;;7.80;99.90;;;;;;5003553;28;19930;-79
2023/04/21 10:19:25;;;;;;;;;;;7.90;99.90;;;;;;5003802;28;19941;-80
2023/04/21 10:21:52;;;;;;;;;;;7.90;99.90;;;;;;5001018;28;19953;-79
2023/04/21 10:24:19;;;;;;;;;;;7.90;99.90;;;;;;5008271;28;19948;-80
2023/04/21 10:26:45;;;;;;;;;;;7.90;99.90;;;;;;5003621;28;19936;-84
2023/04/21 10:29:14;;;;;;;;;;;8.00;99.90;;;;;;5001876;28;20036;-83
2023/04/21 10:31:51;;;;;;;;;;;8.00;99.90;;;;;;5006324;28;19941;-79
2023/04/21 10:34:19;;;;;;;;;;;8.00;99.90;;;;;;5007475;28;19980;-79
2023/04/21 10:37:06;;;;;;;;;;;8.00;99.90;;;;;;5002061;28;20384;-82
2023/04/21 10:39:34;;;;;;;;;;;8.10;99.90;;;;;;5001530;28;19930;-82
2023/04/21 10:42:16;;;;;;;;;;;8.10;99.90;;;;;;5004627;28;19930;-82
2023/04/21 10:44:43;;;;;;;;;;;8.20;99.90;;;;;;4999837;28;19933;-79
2023/04/21 10:47:11;;;;;;;;;;;8.30;99.90;;;;;;4998245;28;19925;-82
2023/04/21 10:49:39;;;;;;;;;;;8.30;99.90;;;;;;4999454;28;19948;-79
2023/04/21 10:52:07;;;;;;;;;;;8.30;99.90;;;;;;4999317;28;20476;-80
2023/04/21 10:54:40;;;;;;;;;;;8.30;99.90;;;;;;5003067;28;20024;-83
2023/04/21 10:57:07;;;;;;;;;;;8.30;99.90;;;;;;5002625;28;20406;-79
2023/04/21 10:59:35;;;;;;;;;;;8.30;99.90;;;;;;5005108;28;20303;-79
2023/04/21 11:02:02;;;;;;;;;;;8.40;99.90;;;;;;4988074;28;19933;-82
2023/04/21 11:04:30;;;;;;;;;;;8.50;99.90;;;;;;5002698;28;19936;-80
2023/04/21 11:07:05;;;;;;;;;;;8.50;99.90;;;;;;5004918;28;19940;-79
2023/04/21 11:09:32;;;;;;;;;;;8.50;99.90;;;;;;4998697;28;20016;-84
2023/04/21 11:12:01;;;;;;;;;;;8.60;99.90;;;;;;5006371;28;19996;-78
2023/04/21 11:14:28;;;;;;;;;;;8.70;99.90;;;;;;4998149;28;19934;-81
2023/04/21 11:16:55;;;;;;;;;;;8.60;99.90;;;;;;4986763;28;20023;-80
2023/04/21 11:19:23;;;;;;;;;;;8.60;99.90;;;;;;4997611;28;19925;-79
2023/04/21 11:21:52;;;;;;;;;;;8.70;99.90;;;;;;5001378;28;19968;-81
2023/04/21 11:24:20;;;;;;;;;;;8.80;99.90;;;;;;5001450;28;19934;-79
2023/04/21 11:26:48;;;;;;;;;;;8.80;99.90;;;;;;4981626;28;20355;-80
2023/04/21 11:29:15;;;;;;;;;;;8.80;99.90;;;;;;5003520;28;19937;-83
2023/04/21 11:31:44;;;;;;;;;;;8.80;99.90;;;;;;5004161;28;19982;-79
2023/04/21 11:34:11;;;;;;;;;;;8.90;99.90;;;;;;4989156;28;20525;-79
2023/04/21 11:36:39;;;;;;;;;;;8.90;99.90;;;;;;4999895;28;20125;-79
2023/04/21 11:39:08;;;;;;;;;;;9.20;99.90;;;;;;5001512;28;20373;-81
2023/04/21 11:41:36;;;;;;;;;;;9.30;99.90;;;;;;5000962;28;20312;-79
2023/04/21 11:44:03;;;;;;;;;;;9.40;99.90;;;;;;5000294;28;20459;-80
2023/04/21 11:46:31;;;;;;;;;;;9.40;99.90;;;;;;5004220;28;19925;-79
2023/04/21 11:48:58;;;;;;;;;;;9.40;99.90;;;;;;4998179;28;20368;-79
2023/04/21 11:51:26;;;;;;;;;;;9.40;99.90;;;;;;5009248;28;19930;-82
2023/04/21 11:53:53;;;;;;;;;;;9.40;99.90;;;;;;4997246;28;19933;-80
2023/04/21 11:56:22;;;;;;;;;;;9.50;99.90;;;;;;5000699;28;19976;-79
2023/04/21 11:58:49;;;;;;;;;;;9.50;99.90;;;;;;5004527;28;19929;-79
2023/04/21 12:01:16;;;;;;;;;;;9.50;99.90;;;;;;5001649;28;19940;-79
2023/04/21 12:03:50;;;;;;;;;;;9.50;99.90;;;;;;5003712;28;20663;-80
2023/04/21 12:06:20;;;;;;;;;;;9.50;99.90;;;;;;5000794;28;19996;-79
2023/04/21 12:08:46;;;;;;;;;;;9.60;99.90;;;;;;5005729;28;19925;-79
2023/04/21 12:11:16;;;;;;;;;;;9.80;99.90;;;;;;5002507;28;19926;-82
2023/04/21 12:13:44;;;;;;;;;;;9.90;99.90;;;;;;5002646;28;20018;-80
2023/04/21 12:16:12;;;;;;;;;;;9.90;99.90;;;;;;5002320;28;19925;-79
2023/04/21 12:18:42;;;;;;;;;;;10.00;99.90;;;;;;5000823;28;19961;-79
2023/04/21 12:21:10;;;;;;;;;;;10.20;99.90;;;;;;4998797;28;19964;-79
2023/04/21 12:23:38;;;;;;;;;;;10.20;99.90;;;;;;5005382;28;19972;-79
2023/04/21 12:26:05;;;;;;;;;;;10.40;99.90;;;;;;4998698;28;19931;-79
2023/04/21 12:28:31;;;;;;;;;;;10.40;99.90;;;;;;5003699;28;19963;-80
2023/04/21 12:31:00;;;;;;;;;;;10.30;99.90;;;;;;5001552;28;20437;-79
2023/04/21 12:33:27;;;;;;;;;;;10.20;99.90;;;;;;4999775;28;19925;-80
2023/04/21 12:35:53;;;;;;;;;;;10.40;99.90;;;;;;4997439;28;19926;-80
2023/04/21 12:38:20;;;;;;;;;;;10.70;99.90;;;;;;5000889;28;19929;-80
2023/04/21 12:40:48;;;;;;;;;;;10.80;99.90;;;;;;4997035;28;20331;-80
2023/04/21 12:43:15;;;;;;;;;;;10.80;99.90;;;;;;5001150;28;20000;-80
2023/04/21 12:45:43;;;;;;;;;;;10.80;99.90;;;;;;4978763;28;20427;-80
2023/04/21 12:48:11;;;;;;;;;;;10.70;99.90;;;;;;5004191;28;19933;-80
2023/04/21 12:50:38;;;;;;;;;;;10.70;99.90;;;;;;5003770;28;19925;-82
2023/04/21 12:53:05;;;;;;;;;;;10.70;99.90;;;;;;5000656;28;19925;-80
2023/04/21 12:55:34;;;;;;;;;;;10.70;99.90;;;;;;4999773;28;19929;-79
2023/04/21 12:58:03;;;;;;;;;;;11.00;99.90;;;;;;5000322;28;19981;-79
2023/04/21 13:00:30;;;;;;;;;;;11.10;99.90;;;;;;4986493;28;20320;-79
2023/04/21 13:02:57;;;;;;;;;;;11.00;99.90;;;;;;5000519;28;20403;-79
2023/04/21 13:05:26;;;;;;;;;;;11.10;99.90;;;;;;4996432;28;20012;-79
2023/04/21 13:07:53;;;;;;;;;;;11.10;99.90;;;;;;4996923;28;19940;-80
2023/04/21 13:10:20;;;;;;;;;;;11.20;99.90;;;;;;5003698;28;19949;-82
2023/04/21 13:12:46;;;;;;;;;;;11.20;99.90;;;;;;4996138;28;19964;-80
2023/04/21 13:15:13;;;;;;;;;;;11.20;99.90;;;;;;4998857;28;19926;-82
2023/04/21 13:17:40;;;;;;;;;;;11.30;99.90;;;;;;5002818;28;20003;-79
2023/04/21 13:20:07;;;;;;;;;;;11.30;99.90;;;;;;5003039;28;19968;-80
2023/04/21 13:22:36;;;;;;;;;;;11.30;99.90;;;;;;5002400;28;20031;-79
2023/04/21 13:25:03;;;;;;;;;;;11.40;99.90;;;;;;4999774;28;20054;-78
2023/04/21 13:27:32;;;;;;;;;;;11.50;99.90;;;;;;4981514;28;19936;-80
2023/04/21 13:29:59;;;;;;;;;;;;;;;;;;4998167;28;19936;-79
2023/04/21 13:32:26;;;;;;;;;;;11.60;99.90;;;;;;4999426;28;20024;-79
2023/04/21 13:34:53;;;;;;;;;;;11.80;99.90;;;;;;5003275;28;19930;-80
2023/04/21 13:37:20;;;;;;;;;;;11.90;99.90;;;;;;5000924;28;20588;-78
2023/04/21 13:39:48;;;;;;;;;;;11.80;99.90;;;;;;5005747;28;20001;-78
2023/04/21 13:42:15;;;;;;;;;;;11.70;99.90;;;;;;5001226;28;19934;-77
2023/04/21 13:44:42;;;;;;;;;;;11.80;99.90;;;;;;5001415;28;19930;-80
2023/04/21 13:47:09;;;;;;;;;;;11.80;99.90;;;;;;5005379;28;20399;-80
2023/04/21 13:49:35;;;;;;;;;;;11.80;99.90;;;;;;5007948;28;19980;-78
2023/04/21 13:52:02;;;;;;;;;;;11.80;99.90;;;;;;4988052;28;19929;-79
2023/04/21 13:54:29;;;;;;;;;;;11.80;99.90;;;;;;5001176;28;20021;-78
2023/04/21 13:56:58;;;;;;;;;;;11.80;99.90;;;;;;5005015;28;19926;-74
2023/04/21 13:59:25;;;;;;;;;;;11.90;99.90;;;;;;4990441;28;19929;-75
2023/04/21 14:01:52;;;;;;;;;;;11.90;99.90;;;;;;5001984;28;19937;-74
2023/04/21 14:04:19;;;;;;;;;;;12.00;99.90;;;;;;4999338;28;20444;-74
2023/04/21 14:06:46;;;;;;;;;;;12.10;99.90;;;;;;5004137;28;20003;-73
2023/04/21 14:09:14;;;;;;;;;;;;;;;;;;4993922;28;19979;-75
2023/04/21 14:11:40;;;;;;;;;;;12.60;99.90;;;;;;4984153;28;20427;-74
2023/04/21 14:14:09;;;;;;;;;;;12.70;99.90;;;;;;5002299;28;20384;-75
2023/04/21 14:16:38;;;;;;;;;;;12.90;99.90;;;;;;4999585;28;20025;-74
2023/04/21 14:19:05;;;;;;;;;;;13.00;99.90;;;;;;4998759;28;19929;-74
2023/04/21 14:21:32;;;;;;;;;;;13.10;99.90;;;;;;4993087;28;19929;-73
2023/04/21 14:23:59;;;;;;;;;;;13.10;99.90;;;;;;4993541;28;20315;-74
2023/04/21 14:26:26;;;;;;;;;;;13.20;99.90;;;;;;4996119;28;21443;-73
2023/04/21 14:28:53;;;;;;;;;;;13.20;99.90;;;;;;5000056;28;20020;-74
2023/04/21 14:31:21;;;;;;;;;;;13.20;99.90;;;;;;4994110;28;20451;-74